createdAt,value
2019-05-13T00:00:16.685Z,8.08
2019-05-13T00:01:16.731Z,8.09
2019-05-13T00:02:16.998Z,8.06
2019-05-13T00:03:16.259Z,8.05
2019-05-13T00:04:16.528Z,8.05
2019-05-13T00:05:16.799Z,8.02
2019-05-13T00:06:17.054Z,8.08
2019-05-13T00:07:16.334Z,8.06
2019-05-13T00:08:16.586Z,7.88
2019-05-13T00:09:16.846Z,7.89
2019-05-13T00:10:17.111Z,7.81
2019-05-13T00:11:17.160Z,7.81
2019-05-13T00:12:16.422Z,7.85
2019-05-13T00:13:16.689Z,7.80
2019-05-13T00:14:16.964Z,7.85
2019-05-13T00:15:16.233Z,7.88
2019-05-13T00:16:16.489Z,7.81
2019-05-13T00:17:16.759Z,7.75
2019-05-13T00:18:17.030Z,7.81
2019-05-13T00:19:16.296Z,7.72
2019-05-13T00:20:16.563Z,7.75
2019-05-13T00:21:16.620Z,7.77
2019-05-13T00:22:16.880Z,7.78
2019-05-13T00:23:17.145Z,7.72
2019-05-13T00:24:16.419Z,7.64
2019-05-13T00:25:16.679Z,7.69
2019-05-13T00:26:16.957Z,7.61
2019-05-13T00:27:16.209Z,7.50
2019-05-13T00:28:16.494Z,7.51
2019-05-13T00:29:16.767Z,7.71
2019-05-13T00:30:17.057Z,7.68
2019-05-13T00:31:17.086Z,7.64
2019-05-13T00:32:16.354Z,7.61
2019-05-13T00:33:16.616Z,7.58
2019-05-13T00:34:16.891Z,7.51
2019-05-13T00:35:17.156Z,7.50
2019-05-13T00:36:16.419Z,7.41
2019-05-13T00:37:16.681Z,7.37
2019-05-13T00:38:16.949Z,7.34
2019-05-13T00:39:16.215Z,7.34
2019-05-13T00:40:16.508Z,7.30
2019-05-13T00:41:16.547Z,7.23
2019-05-13T00:42:16.810Z,7.12
2019-05-13T00:43:17.145Z,7.05
2019-05-13T00:44:16.412Z,7.12
2019-05-13T00:45:16.678Z,7.24
2019-05-13T00:46:16.937Z,7.40
2019-05-13T00:47:16.207Z,7.33
2019-05-13T00:48:16.472Z,7.27
2019-05-13T00:49:16.735Z,7.12
2019-05-13T00:50:17.014Z,7.05
2019-05-13T00:51:17.056Z,6.95
2019-05-13T00:52:16.316Z,6.84
2019-05-13T00:53:16.575Z,6.92
2019-05-13T00:54:16.844Z,7.02
2019-05-13T00:55:17.121Z,7.03
2019-05-13T00:56:16.394Z,7.12
2019-05-13T00:57:16.665Z,7.19
2019-05-13T00:58:16.952Z,6.95
2019-05-13T00:59:16.226Z,6.88
2019-05-13T01:00:16.503Z,6.81
2019-05-13T01:01:16.538Z,6.67
2019-05-13T01:02:16.805Z,6.65
2019-05-13T01:03:17.072Z,6.49
2019-05-13T01:04:16.338Z,6.43
2019-05-13T01:05:16.642Z,6.40
2019-05-13T01:06:16.902Z,6.36
2019-05-13T01:07:25.775Z,6.33
2019-05-13T01:08:16.252Z,6.21
2019-05-13T01:09:16.524Z,6.23
2019-05-13T01:10:16.795Z,6.23
2019-05-13T01:11:16.842Z,6.17
2019-05-13T01:12:17.113Z,6.16
2019-05-13T01:13:16.388Z,6.14
2019-05-13T01:14:16.670Z,6.09
2019-05-13T01:15:16.956Z,6.03
2019-05-13T01:16:16.216Z,6.00
2019-05-13T01:17:16.482Z,5.93
2019-05-13T01:18:16.749Z,5.92
2019-05-13T01:19:17.016Z,5.86
2019-05-13T01:20:16.295Z,5.86
2019-05-13T01:21:16.331Z,5.82
2019-05-13T01:22:16.598Z,5.78
2019-05-13T01:23:16.855Z,5.77
2019-05-13T01:24:17.119Z,5.74
2019-05-13T01:25:16.401Z,5.67
2019-05-13T01:26:16.698Z,5.60
2019-05-13T01:27:16.959Z,5.58
2019-05-13T01:28:16.214Z,5.54
2019-05-13T01:29:16.473Z,5.50
2019-05-13T01:30:16.743Z,5.48
2019-05-13T01:31:16.792Z,5.67
2019-05-13T01:32:17.051Z,5.68
2019-05-13T01:33:16.319Z,5.48
2019-05-13T01:34:16.590Z,5.45
2019-05-13T01:35:16.857Z,5.41
2019-05-13T01:36:17.120Z,5.43
2019-05-13T01:37:16.388Z,5.57
2019-05-13T01:38:16.655Z,5.71
2019-05-13T01:39:16.928Z,5.62
2019-05-13T01:40:17.210Z,5.72
2019-05-13T01:41:16.253Z,5.64
2019-05-13T01:42:16.523Z,5.61
2019-05-13T01:43:16.796Z,5.62
2019-05-13T01:44:17.074Z,5.51
2019-05-13T01:45:16.346Z,5.48
2019-05-13T01:46:16.618Z,5.45
2019-05-13T01:47:16.886Z,5.40
2019-05-13T01:48:17.152Z,5.31
2019-05-13T01:49:18.583Z,5.27
2019-05-13T01:50:17.005Z,5.20
2019-05-13T01:51:17.062Z,5.20
2019-05-13T01:52:16.329Z,5.12
2019-05-13T01:53:16.606Z,5.06
2019-05-13T01:54:16.870Z,5.06
2019-05-13T01:55:17.134Z,5.05
2019-05-13T01:56:16.403Z,4.98
2019-05-13T01:57:16.669Z,4.98
2019-05-13T01:58:16.435Z,5.10
2019-05-13T01:59:16.706Z,5.31
2019-05-13T02:00:17.001Z,5.31
2019-05-13T02:01:17.022Z,4.88
2019-05-13T02:02:16.279Z,4.78
2019-05-13T02:03:16.555Z,4.69
2019-05-13T02:04:16.822Z,4.76
2019-05-13T02:05:17.090Z,4.91
2019-05-13T02:06:16.365Z,4.85
2019-05-13T02:07:16.625Z,4.84
2019-05-13T02:08:16.892Z,4.95
2019-05-13T02:09:17.160Z,5.10
2019-05-13T02:10:16.439Z,5.03
2019-05-13T02:11:16.481Z,4.99
2019-05-13T02:12:16.766Z,5.16
2019-05-13T02:13:17.025Z,5.14
2019-05-13T02:14:16.296Z,5.14
2019-05-13T02:15:16.571Z,5.14
2019-05-13T02:16:16.833Z,5.19
2019-05-13T02:17:17.115Z,5.20
2019-05-13T02:18:16.388Z,5.07
2019-05-13T02:19:16.662Z,5.03
2019-05-13T02:20:16.937Z,5.00
2019-05-13T02:21:16.984Z,5.06
2019-05-13T02:22:16.248Z,5.13
2019-05-13T02:23:16.536Z,5.22
2019-05-13T02:24:16.794Z,5.19
2019-05-13T02:25:17.074Z,5.14
2019-05-13T02:26:16.337Z,5.17
2019-05-13T02:27:16.614Z,5.05
2019-05-13T02:28:16.871Z,5.07
2019-05-13T02:29:17.137Z,5.07
2019-05-13T02:30:16.669Z,5.10
2019-05-13T02:31:22.440Z,5.09
2019-05-13T02:32:16.628Z,4.98
2019-05-13T02:33:16.914Z,4.89
2019-05-13T02:34:16.206Z,4.86
2019-05-13T02:35:16.492Z,4.79
2019-05-13T02:36:16.761Z,4.88
2019-05-13T02:37:17.031Z,5.03
2019-05-13T02:38:23.801Z,4.84
2019-05-13T02:39:16.490Z,4.82
2019-05-13T02:40:16.764Z,4.84
2019-05-13T02:41:16.831Z,4.88
2019-05-13T02:42:17.112Z,4.74
2019-05-13T02:43:16.378Z,4.88
2019-05-13T02:44:16.660Z,4.86
2019-05-13T02:45:16.945Z,4.82
2019-05-13T02:46:16.227Z,4.89
2019-05-13T02:47:16.506Z,4.81
2019-05-13T02:48:16.769Z,4.68
2019-05-13T02:49:17.032Z,4.69
2019-05-13T02:50:16.321Z,4.57
2019-05-13T02:51:16.396Z,4.55
2019-05-13T02:52:16.677Z,4.81
2019-05-13T02:53:16.968Z,4.65
2019-05-13T02:54:16.762Z,4.50
2019-05-13T02:55:17.041Z,4.48
2019-05-13T02:56:16.320Z,4.43
2019-05-13T02:57:16.584Z,4.41
2019-05-13T02:58:16.846Z,4.40
2019-05-13T02:59:17.127Z,4.27
2019-05-13T03:00:16.406Z,4.27
2019-05-13T03:01:16.442Z,4.27
2019-05-13T03:02:16.718Z,4.21
2019-05-13T03:03:16.985Z,4.23
2019-05-13T03:04:16.254Z,4.20
2019-05-13T03:05:16.521Z,4.16
2019-05-13T03:06:16.792Z,4.12
2019-05-13T03:07:17.066Z,4.16
2019-05-13T03:08:33.923Z,4.13
2019-05-13T03:09:16.711Z,4.08
2019-05-13T03:10:16.994Z,4.05
2019-05-13T03:11:17.038Z,4.03
2019-05-13T03:12:16.306Z,3.98
2019-05-13T03:13:16.574Z,4.00
2019-05-13T03:14:16.855Z,4.03
2019-05-13T03:15:17.153Z,3.99
2019-05-13T03:16:16.444Z,4.05
2019-05-13T03:17:16.712Z,3.96
2019-05-13T03:18:16.986Z,3.92
2019-05-13T03:19:16.270Z,3.92
2019-05-13T03:20:16.983Z,3.95
2019-05-13T03:21:16.611Z,3.93
2019-05-13T03:22:16.891Z,3.98
2019-05-13T03:23:17.161Z,3.93
2019-05-13T03:24:16.446Z,3.89
2019-05-13T03:25:16.735Z,3.88
2019-05-13T03:26:17.013Z,3.92
2019-05-13T03:27:20.156Z,3.82
2019-05-13T03:28:17.062Z,3.83
2019-05-13T03:29:16.340Z,3.93
2019-05-13T03:30:17.373Z,4.06
2019-05-13T03:31:17.856Z,4.26
2019-05-13T03:32:17.232Z,4.12
2019-05-13T03:33:19.755Z,4.06
2019-05-13T03:34:16.675Z,4.02
2019-05-13T03:35:17.383Z,3.96
2019-05-13T03:36:17.575Z,3.92
2019-05-13T03:37:16.827Z,3.83
2019-05-13T03:38:16.272Z,3.86
2019-05-13T03:39:16.865Z,3.85
2019-05-13T03:40:16.436Z,3.81
2019-05-13T03:41:16.487Z,3.81
2019-05-13T03:42:16.750Z,3.79
2019-05-13T03:43:17.028Z,3.85
2019-05-13T03:44:16.293Z,3.79
2019-05-13T03:45:16.566Z,3.77
2019-05-13T03:46:16.833Z,3.77
2019-05-13T03:47:17.141Z,3.68
2019-05-13T03:48:16.406Z,3.68
2019-05-13T03:49:16.685Z,3.64
2019-05-13T03:50:16.954Z,3.62
2019-05-13T03:51:16.999Z,3.55
2019-05-13T03:52:16.270Z,3.53
2019-05-13T03:53:16.549Z,3.53
2019-05-13T03:54:16.822Z,3.50
2019-05-13T03:55:17.156Z,3.47
2019-05-13T03:56:16.431Z,3.49
2019-05-13T03:57:16.703Z,3.44
2019-05-13T03:58:16.962Z,3.43
2019-05-13T03:59:16.257Z,3.44
2019-05-13T04:00:16.584Z,3.44
2019-05-13T04:01:16.634Z,3.41
2019-05-13T04:02:16.899Z,3.41
2019-05-13T04:03:17.177Z,3.40
2019-05-13T04:04:16.445Z,3.41
2019-05-13T04:05:16.708Z,3.40
2019-05-13T04:06:17.000Z,3.40
2019-05-13T04:07:16.267Z,3.36
2019-05-13T04:08:16.534Z,3.37
2019-05-13T04:09:25.387Z,3.36
2019-05-13T04:10:17.092Z,3.36
2019-05-13T04:11:17.128Z,3.37
2019-05-13T04:12:16.405Z,3.39
2019-05-13T04:13:16.676Z,3.44
2019-05-13T04:14:16.949Z,3.44
2019-05-13T04:15:16.222Z,3.39
2019-05-13T04:16:16.496Z,3.41
2019-05-13T04:17:16.767Z,3.55
2019-05-13T04:18:17.045Z,3.53
2019-05-13T04:19:16.320Z,3.51
2019-05-13T04:20:16.608Z,3.65
2019-05-13T04:21:16.648Z,3.83
2019-05-13T04:22:16.949Z,4.00
2019-05-13T04:23:16.278Z,4.08
2019-05-13T04:24:16.576Z,4.09
2019-05-13T04:25:16.878Z,4.06
2019-05-13T04:26:17.197Z,4.03
2019-05-13T04:27:16.487Z,4.00
2019-05-13T04:28:17.152Z,4.02
2019-05-13T04:29:16.422Z,4.00
2019-05-13T04:30:16.703Z,4.50
2019-05-13T04:31:16.740Z,4.65
2019-05-13T04:32:17.008Z,4.82
2019-05-13T04:33:16.276Z,4.81
2019-05-13T04:34:16.551Z,4.85
2019-05-13T04:35:16.860Z,4.82
2019-05-13T04:36:17.142Z,4.82
2019-05-13T04:37:16.455Z,4.89
2019-05-13T04:38:16.726Z,4.89
2019-05-13T04:39:34.130Z,4.99
2019-05-13T04:40:16.365Z,4.99
2019-05-13T04:41:16.407Z,5.13
2019-05-13T04:42:16.688Z,5.44
2019-05-13T04:43:16.962Z,5.37
2019-05-13T04:44:16.246Z,5.35
2019-05-13T04:45:16.530Z,5.37
2019-05-13T04:46:16.797Z,5.41
2019-05-13T04:47:17.078Z,5.43
2019-05-13T04:48:16.350Z,5.48
2019-05-13T04:49:16.625Z,5.47
2019-05-13T04:50:16.897Z,5.48
2019-05-13T04:51:16.949Z,5.50
2019-05-13T04:52:16.251Z,5.57
2019-05-13T04:53:16.519Z,5.67
2019-05-13T04:54:16.802Z,5.78
2019-05-13T04:55:17.075Z,5.79
2019-05-13T04:56:16.341Z,6.00
2019-05-13T04:57:16.610Z,6.00
2019-05-13T04:58:16.879Z,5.98
2019-05-13T04:59:17.163Z,6.00
2019-05-13T05:00:16.532Z,6.02
2019-05-13T05:01:16.481Z,6.05
2019-05-13T05:02:16.753Z,6.05
2019-05-13T05:03:22.202Z,6.09
2019-05-13T05:04:23.760Z,6.06
2019-05-13T05:05:16.283Z,6.06
2019-05-13T05:06:16.551Z,6.13
2019-05-13T05:07:16.838Z,6.16
2019-05-13T05:08:17.109Z,6.26
2019-05-13T05:09:16.381Z,6.27
2019-05-13T05:10:28.949Z,6.33
2019-05-13T05:11:16.977Z,6.45
2019-05-13T05:12:16.255Z,6.44
2019-05-13T05:13:16.549Z,6.41
2019-05-13T05:14:16.822Z,6.40
2019-05-13T05:15:17.096Z,6.40
2019-05-13T05:16:16.374Z,6.40
2019-05-13T05:17:16.648Z,6.38
2019-05-13T05:18:16.910Z,6.43
2019-05-13T05:19:17.196Z,6.45
2019-05-13T05:20:16.501Z,6.47
2019-05-13T05:21:16.550Z,6.49
2019-05-13T05:22:16.821Z,6.49
2019-05-13T05:23:17.089Z,6.54
2019-05-13T05:24:16.351Z,6.54
2019-05-13T05:25:16.631Z,6.55
2019-05-13T05:26:16.892Z,6.52
2019-05-13T05:27:17.157Z,6.59
2019-05-13T05:28:16.414Z,6.59
2019-05-13T05:29:16.701Z,6.61
2019-05-13T05:30:16.982Z,6.65
2019-05-13T05:31:17.029Z,6.71
2019-05-13T05:32:16.310Z,6.69
2019-05-13T05:33:16.584Z,6.74
2019-05-13T05:34:16.856Z,6.76
2019-05-13T05:35:17.143Z,6.82
2019-05-13T05:36:16.438Z,6.81
2019-05-13T05:37:16.729Z,6.84
2019-05-13T05:38:17.030Z,6.86
2019-05-13T05:39:16.300Z,6.89
2019-05-13T05:40:28.001Z,6.95
2019-05-13T05:41:16.555Z,6.96
2019-05-13T05:42:16.830Z,6.95
2019-05-13T05:43:17.094Z,6.94
2019-05-13T05:44:16.368Z,6.95
2019-05-13T05:45:16.651Z,6.94
2019-05-13T05:46:16.924Z,6.95
2019-05-13T05:47:17.201Z,7.00
2019-05-13T05:48:16.473Z,7.02
2019-05-13T05:49:16.735Z,7.03
2019-05-13T05:50:17.028Z,7.09
2019-05-13T05:51:17.048Z,7.13
2019-05-13T05:52:16.322Z,7.13
2019-05-13T05:53:16.611Z,7.19
2019-05-13T05:54:16.886Z,7.15
2019-05-13T05:55:17.176Z,7.23
2019-05-13T05:56:16.441Z,7.27
2019-05-13T05:57:16.707Z,7.20
2019-05-13T05:58:16.991Z,7.24
2019-05-13T05:59:16.277Z,7.30
2019-05-13T06:00:16.554Z,7.33
2019-05-13T06:01:16.632Z,7.33
2019-05-13T06:02:16.909Z,7.34
2019-05-13T06:03:17.215Z,7.40
2019-05-13T06:04:16.490Z,7.40
2019-05-13T06:05:16.760Z,7.48
2019-05-13T06:06:17.025Z,7.57
2019-05-13T06:07:16.305Z,7.57
2019-05-13T06:08:17.835Z,7.58
2019-05-13T06:09:16.227Z,7.58
2019-05-13T06:10:16.488Z,7.61
2019-05-13T06:11:16.550Z,7.71
2019-05-13T06:12:16.819Z,7.78
2019-05-13T06:13:17.094Z,7.65
2019-05-13T06:14:16.356Z,7.64
2019-05-13T06:15:16.637Z,7.65
2019-05-13T06:16:16.904Z,7.74
2019-05-13T06:17:17.170Z,7.72
2019-05-13T06:18:16.434Z,7.77
2019-05-13T06:19:17.943Z,7.86
2019-05-13T06:20:16.434Z,7.93
2019-05-13T06:21:16.478Z,7.99
2019-05-13T06:22:16.747Z,8.00
2019-05-13T06:23:17.021Z,8.10
2019-05-13T06:24:16.297Z,8.21
2019-05-13T06:25:16.577Z,8.08
2019-05-13T06:26:16.863Z,8.08
2019-05-13T06:27:17.148Z,8.20
2019-05-13T06:28:16.413Z,8.33
2019-05-13T06:29:16.685Z,8.41
2019-05-13T06:30:16.962Z,8.39
2019-05-13T06:31:17.007Z,8.39
2019-05-13T06:32:22.196Z,8.44
2019-05-13T06:33:16.809Z,8.75
2019-05-13T06:34:17.089Z,8.85
2019-05-13T06:35:16.361Z,8.82
2019-05-13T06:36:16.636Z,8.85
2019-05-13T06:37:16.909Z,9.05
2019-05-13T06:38:17.188Z,9.15
2019-05-13T06:39:16.444Z,9.12
2019-05-13T06:40:16.711Z,9.19
2019-05-13T06:41:16.759Z,9.54
2019-05-13T06:42:17.030Z,9.43
2019-05-13T06:43:16.294Z,9.37
2019-05-13T06:44:16.556Z,9.50
2019-05-13T06:45:16.827Z,9.43
2019-05-13T06:46:17.090Z,9.61
2019-05-13T06:47:16.353Z,9.54
2019-05-13T06:48:16.609Z,9.37
2019-05-13T06:49:16.877Z,9.65
2019-05-13T06:50:17.172Z,9.65
2019-05-13T06:51:17.177Z,10.12
2019-05-13T06:52:16.482Z,9.80
2019-05-13T06:53:16.751Z,10.10
2019-05-13T06:54:17.022Z,9.98
2019-05-13T06:55:16.296Z,10.33
2019-05-13T06:56:16.563Z,10.33
2019-05-13T06:57:16.826Z,10.10
2019-05-13T06:58:17.106Z,10.21
2019-05-13T06:59:16.391Z,9.78
2019-05-13T07:00:16.665Z,9.65
2019-05-13T07:01:16.718Z,10.12
2019-05-13T07:02:17.048Z,10.30
2019-05-13T07:03:16.386Z,10.09
2019-05-13T07:04:16.666Z,9.78
2019-05-13T07:05:16.960Z,9.91
2019-05-13T07:06:16.232Z,9.81
2019-05-13T07:07:17.426Z,9.85
2019-05-13T07:08:16.889Z,9.88
2019-05-13T07:09:17.561Z,9.98
2019-05-13T07:10:16.848Z,10.20
2019-05-13T07:11:20.534Z,10.21
2019-05-13T07:12:17.170Z,10.12
2019-05-13T07:13:16.554Z,10.14
2019-05-13T07:14:16.824Z,10.13
2019-05-13T07:15:17.088Z,10.31
2019-05-13T07:16:16.353Z,10.50
2019-05-13T07:17:16.622Z,10.50
2019-05-13T07:18:16.900Z,10.50
2019-05-13T07:19:17.184Z,10.36
2019-05-13T07:20:16.464Z,10.36
2019-05-13T07:21:16.505Z,10.36
2019-05-13T07:22:16.801Z,10.36
2019-05-13T07:23:17.073Z,10.27
2019-05-13T07:24:16.337Z,10.21
2019-05-13T07:25:16.614Z,10.20
2019-05-13T07:26:16.890Z,10.16
2019-05-13T07:27:17.153Z,10.14
2019-05-13T07:28:16.419Z,10.20
2019-05-13T07:29:17.033Z,10.33
2019-05-13T07:30:17.016Z,10.34
2019-05-13T07:31:17.078Z,10.39
2019-05-13T07:32:16.349Z,10.47
2019-05-13T07:33:16.620Z,10.31
2019-05-13T07:34:16.888Z,10.60
2019-05-13T07:35:17.163Z,10.24
2019-05-13T07:36:16.467Z,10.47
2019-05-13T07:37:16.770Z,10.77
2019-05-13T07:38:17.038Z,10.70
2019-05-13T07:39:16.317Z,10.63
2019-05-13T07:40:16.587Z,10.63
2019-05-13T07:41:16.637Z,10.65
2019-05-13T07:42:16.911Z,10.88
2019-05-13T07:43:17.177Z,10.91
2019-05-13T07:44:16.459Z,10.79
2019-05-13T07:45:16.739Z,10.72
2019-05-13T07:46:16.997Z,10.39
2019-05-13T07:47:16.266Z,10.41
2019-05-13T07:48:20.849Z,10.60
2019-05-13T07:49:16.782Z,10.82
2019-05-13T07:50:17.060Z,10.58
2019-05-13T07:51:17.099Z,10.72
2019-05-13T07:52:16.412Z,10.85
2019-05-13T07:53:18.870Z,10.82
2019-05-13T07:54:16.708Z,11.25
2019-05-13T07:55:16.986Z,11.40
2019-05-13T07:56:16.258Z,11.68
2019-05-13T07:57:16.529Z,11.51
2019-05-13T07:58:16.804Z,10.77
2019-05-13T07:59:17.102Z,10.63
2019-05-13T08:00:16.381Z,10.54
2019-05-13T08:01:16.441Z,10.50
2019-05-13T08:02:16.713Z,10.88
2019-05-13T08:03:16.986Z,10.78
2019-05-13T08:04:22.207Z,10.89
2019-05-13T08:05:16.895Z,11.23
2019-05-13T08:06:17.159Z,11.50
2019-05-13T08:07:16.425Z,11.34
2019-05-13T08:08:16.691Z,11.05
2019-05-13T08:09:16.953Z,11.15
2019-05-13T08:10:16.235Z,11.23
2019-05-13T08:11:16.294Z,11.95
2019-05-13T08:12:16.662Z,11.92
2019-05-13T08:13:16.285Z,11.10
2019-05-13T08:14:16.554Z,11.29
2019-05-13T08:15:16.847Z,11.12
2019-05-13T08:16:17.114Z,11.27
2019-05-13T08:17:16.437Z,11.23
2019-05-13T08:18:16.706Z,11.16
2019-05-13T08:19:16.964Z,11.29
2019-05-13T08:20:16.255Z,11.80
2019-05-13T08:21:16.269Z,11.39
2019-05-13T08:22:16.669Z,11.51
2019-05-13T08:23:17.046Z,11.55
2019-05-13T08:24:16.324Z,11.33
2019-05-13T08:25:16.595Z,11.44
2019-05-13T08:26:16.859Z,11.74
2019-05-13T08:27:21.498Z,11.55
2019-05-13T08:28:16.441Z,11.51
2019-05-13T08:29:16.704Z,11.40
2019-05-13T08:30:18.168Z,11.53
2019-05-13T08:31:17.032Z,11.58
2019-05-13T08:32:16.353Z,11.53
2019-05-13T08:33:16.672Z,11.70
2019-05-13T08:34:16.946Z,11.64
2019-05-13T08:35:16.217Z,11.60
2019-05-13T08:36:16.479Z,11.53
2019-05-13T08:37:16.758Z,11.81
2019-05-13T08:38:17.031Z,11.96
2019-05-13T08:39:16.290Z,11.88
2019-05-13T08:40:19.880Z,11.64
2019-05-13T08:41:19.314Z,11.54
2019-05-13T08:42:19.780Z,11.54
2019-05-13T08:43:16.641Z,11.63
2019-05-13T08:44:17.047Z,11.91
2019-05-13T08:45:16.309Z,11.63
2019-05-13T08:46:16.577Z,11.98
2019-05-13T08:47:16.846Z,12.36
2019-05-13T08:48:17.126Z,12.77
2019-05-13T08:49:16.399Z,12.39
2019-05-13T08:50:16.680Z,12.43
2019-05-13T08:51:16.734Z,12.41
2019-05-13T08:52:16.998Z,12.12
2019-05-13T08:53:16.256Z,12.43
2019-05-13T08:54:16.557Z,12.36
2019-05-13T08:55:16.853Z,12.30
2019-05-13T08:56:17.127Z,11.96
2019-05-13T08:57:16.391Z,12.09
2019-05-13T08:58:16.663Z,12.46
2019-05-13T08:59:16.940Z,12.25
2019-05-13T09:00:16.217Z,11.95
2019-05-13T09:01:16.273Z,11.64
2019-05-13T09:02:16.542Z,11.74
2019-05-13T09:03:16.813Z,11.75
2019-05-13T09:04:17.079Z,12.35
2019-05-13T09:05:16.337Z,12.29
2019-05-13T09:06:16.599Z,12.30
2019-05-13T09:07:16.858Z,12.22
2019-05-13T09:08:17.129Z,11.42
2019-05-13T09:09:16.410Z,11.37
2019-05-13T09:10:16.703Z,11.55
2019-05-13T09:11:16.757Z,11.77
2019-05-13T09:12:29.405Z,11.85
2019-05-13T09:13:16.340Z,11.81
2019-05-13T09:14:16.612Z,11.91
2019-05-13T09:15:16.893Z,12.03
2019-05-13T09:16:17.157Z,12.06
2019-05-13T09:17:16.436Z,12.19
2019-05-13T09:18:16.714Z,12.28
2019-05-13T09:19:16.986Z,12.23
2019-05-13T09:20:16.254Z,11.93
2019-05-13T09:21:16.308Z,11.86
2019-05-13T09:22:16.577Z,11.70
2019-05-13T09:23:16.839Z,11.58
2019-05-13T09:24:24.383Z,11.61
2019-05-13T09:25:16.888Z,11.74
2019-05-13T09:26:17.151Z,11.93
2019-05-13T09:27:16.416Z,11.95
2019-05-13T09:28:16.678Z,12.37
2019-05-13T09:29:16.953Z,12.89
2019-05-13T09:30:16.262Z,12.79
2019-05-13T09:31:16.311Z,12.68
2019-05-13T09:32:16.571Z,12.54
2019-05-13T09:33:16.827Z,12.53
2019-05-13T09:34:17.099Z,12.79
2019-05-13T09:35:16.369Z,12.33
2019-05-13T09:36:16.639Z,12.23
2019-05-13T09:37:16.907Z,12.25
2019-05-13T09:38:17.180Z,12.43
2019-05-13T09:39:16.466Z,12.29
2019-05-13T09:40:16.742Z,13.02
2019-05-13T09:41:16.784Z,12.57
2019-05-13T09:42:17.046Z,12.77
2019-05-13T09:43:16.324Z,12.82
2019-05-13T09:44:16.589Z,12.44
2019-05-13T09:45:16.858Z,12.12
2019-05-13T09:46:17.127Z,12.13
2019-05-13T09:47:16.394Z,12.28
2019-05-13T09:48:16.654Z,12.79
2019-05-13T09:49:19.981Z,13.19
2019-05-13T09:50:28.252Z,13.26
2019-05-13T09:51:17.121Z,12.95
2019-05-13T09:52:16.388Z,12.47
2019-05-13T09:53:16.651Z,12.49
2019-05-13T09:54:16.922Z,12.23
2019-05-13T09:55:26.189Z,12.36
2019-05-13T09:56:16.477Z,12.50
2019-05-13T09:57:16.772Z,12.91
2019-05-13T09:58:17.057Z,13.02
2019-05-13T09:59:16.325Z,13.06
2019-05-13T10:00:16.615Z,13.43
2019-05-13T10:01:16.660Z,13.04
2019-05-13T10:02:16.926Z,13.30
2019-05-13T10:03:17.189Z,13.54
2019-05-13T10:04:16.463Z,13.61
2019-05-13T10:05:16.742Z,12.79
2019-05-13T10:06:17.029Z,12.70
2019-05-13T10:07:16.301Z,12.94
2019-05-13T10:08:16.573Z,12.82
2019-05-13T10:09:16.846Z,13.12
2019-05-13T10:10:17.130Z,12.68
2019-05-13T10:11:17.165Z,12.88
2019-05-13T10:12:16.444Z,12.92
2019-05-13T10:13:16.714Z,12.79
2019-05-13T10:14:16.979Z,12.63
2019-05-13T10:15:16.241Z,12.81
2019-05-13T10:16:16.518Z,13.09
2019-05-13T10:17:16.784Z,13.16
2019-05-13T10:18:17.054Z,13.51
2019-05-13T10:19:16.785Z,13.60
2019-05-13T10:20:17.082Z,13.73
2019-05-13T10:21:17.130Z,13.78
2019-05-13T10:22:16.409Z,13.88
2019-05-13T10:23:16.691Z,13.88
2019-05-13T10:24:16.955Z,13.21
2019-05-13T10:25:16.246Z,13.02
2019-05-13T10:26:16.531Z,13.26
2019-05-13T10:27:18.767Z,12.98
2019-05-13T10:28:16.900Z,13.06
2019-05-13T10:29:17.188Z,13.36
2019-05-13T10:30:16.483Z,13.19
2019-05-13T10:31:16.491Z,13.46
2019-05-13T10:32:16.758Z,13.87
2019-05-13T10:33:17.030Z,14.01
2019-05-13T10:34:16.455Z,13.74
2019-05-13T10:35:16.752Z,13.29
2019-05-13T10:36:17.029Z,13.54
2019-05-13T10:37:16.298Z,13.55
2019-05-13T10:38:16.581Z,13.42
2019-05-13T10:39:16.860Z,13.54
2019-05-13T10:40:17.154Z,13.30
2019-05-13T10:41:16.224Z,13.23
2019-05-13T10:42:16.869Z,13.29
2019-05-13T10:43:29.100Z,14.30
2019-05-13T10:44:16.550Z,13.92
2019-05-13T10:45:16.823Z,13.88
2019-05-13T10:46:17.118Z,13.25
2019-05-13T10:47:16.383Z,13.25
2019-05-13T10:48:16.649Z,13.14
2019-05-13T10:49:16.918Z,13.36
2019-05-13T10:50:16.525Z,13.87
2019-05-13T10:51:16.584Z,13.94
2019-05-13T10:52:16.872Z,13.58
2019-05-13T10:53:17.152Z,13.92
2019-05-13T10:54:16.421Z,14.39
2019-05-13T10:55:16.711Z,13.80
2019-05-13T10:56:17.029Z,14.05
2019-05-13T10:57:16.578Z,13.74
2019-05-13T10:58:16.853Z,13.08
2019-05-13T10:59:17.155Z,13.36
2019-05-13T11:00:16.457Z,13.65
2019-05-13T11:01:16.516Z,14.04
2019-05-13T11:02:16.795Z,13.71
2019-05-13T11:03:17.063Z,13.71
2019-05-13T11:04:16.348Z,13.98
2019-05-13T11:05:16.876Z,13.67
2019-05-13T11:06:17.183Z,13.46
2019-05-13T11:07:16.466Z,13.87
2019-05-13T11:08:16.739Z,14.04
2019-05-13T11:09:17.017Z,14.35
2019-05-13T11:10:16.304Z,14.64
2019-05-13T11:11:16.350Z,14.64
2019-05-13T11:12:16.620Z,15.19
2019-05-13T11:13:16.902Z,14.94
2019-05-13T11:14:17.176Z,14.55
2019-05-13T11:15:16.463Z,14.98
2019-05-13T11:16:16.738Z,14.98
2019-05-13T11:17:17.016Z,14.57
2019-05-13T11:18:19.224Z,15.43
2019-05-13T11:19:16.828Z,14.95
2019-05-13T11:20:16.453Z,14.33
2019-05-13T11:21:16.499Z,14.50
2019-05-13T11:22:16.770Z,14.80
2019-05-13T11:23:17.043Z,14.71
2019-05-13T11:24:16.313Z,14.37
2019-05-13T11:25:16.589Z,15.25
2019-05-13T11:26:16.872Z,15.26
2019-05-13T11:27:17.149Z,15.45
2019-05-13T11:28:17.013Z,15.08
2019-05-13T11:29:16.291Z,15.04
2019-05-13T11:30:16.579Z,15.15
2019-05-13T11:31:16.606Z,15.33
2019-05-13T11:32:16.892Z,15.33
2019-05-13T11:33:17.164Z,14.92
2019-05-13T11:34:16.455Z,14.68
2019-05-13T11:35:16.962Z,14.39
2019-05-13T11:36:19.038Z,14.47
2019-05-13T11:37:16.813Z,14.26
2019-05-13T11:38:17.096Z,14.26
2019-05-13T11:39:16.383Z,14.33
2019-05-13T11:40:16.663Z,14.60
2019-05-13T11:41:16.691Z,14.71
2019-05-13T11:42:16.967Z,14.77
2019-05-13T11:43:16.246Z,14.77
2019-05-13T11:44:17.008Z,14.91
2019-05-13T11:45:16.584Z,14.67
2019-05-13T11:46:16.860Z,14.71
2019-05-13T11:47:17.134Z,14.63
2019-05-13T11:48:16.430Z,14.62
2019-05-13T11:49:16.703Z,14.49
2019-05-13T11:50:16.467Z,14.73
2019-05-13T11:51:16.524Z,14.85
2019-05-13T11:52:16.799Z,14.26
2019-05-13T11:53:31.192Z,14.23
2019-05-13T11:54:16.710Z,14.39
2019-05-13T11:55:17.010Z,14.18
2019-05-13T11:56:16.276Z,14.26
2019-05-13T11:57:16.599Z,14.63
2019-05-13T11:58:16.904Z,14.36
2019-05-13T11:59:17.207Z,14.50
2019-05-13T12:00:16.494Z,14.71
2019-05-13T12:01:16.558Z,14.62
2019-05-13T12:02:16.825Z,14.53
2019-05-13T12:03:17.104Z,14.70
2019-05-13T12:04:16.421Z,14.55
2019-05-13T12:05:17.024Z,14.46
2019-05-13T12:06:16.294Z,14.53
2019-05-13T12:07:16.569Z,14.60
2019-05-13T12:08:16.851Z,14.94
2019-05-13T12:09:17.124Z,14.49
2019-05-13T12:10:16.437Z,14.70
2019-05-13T12:11:16.501Z,14.52
2019-05-13T12:12:16.779Z,14.37
2019-05-13T12:13:16.345Z,14.71
2019-05-13T12:14:38.925Z,14.60
2019-05-13T12:15:26.771Z,14.60
2019-05-13T12:16:17.157Z,13.63
2019-05-13T12:17:16.430Z,13.91
2019-05-13T12:18:16.704Z,14.11
2019-05-13T12:19:16.974Z,14.52
2019-05-13T12:20:16.279Z,14.28
2019-05-13T12:21:16.325Z,14.19
2019-05-13T12:22:16.609Z,14.32
2019-05-13T12:23:16.876Z,14.44
2019-05-13T12:24:17.161Z,14.41
2019-05-13T12:25:16.449Z,14.18
2019-05-13T12:26:16.737Z,14.32
2019-05-13T12:27:17.074Z,14.33
2019-05-13T12:28:16.344Z,14.18
2019-05-13T12:29:19.065Z,14.01
2019-05-13T12:30:16.770Z,14.16
2019-05-13T12:31:16.808Z,14.19
2019-05-13T12:32:17.086Z,14.20
2019-05-13T12:33:16.371Z,14.43
2019-05-13T12:34:16.646Z,14.35
2019-05-13T12:35:16.922Z,14.35
2019-05-13T12:37:16.503Z,14.36
2019-05-13T12:38:16.815Z,14.22
2019-05-13T12:39:17.087Z,14.33
2019-05-13T12:40:16.370Z,14.59
2019-05-13T12:41:16.397Z,14.67
2019-05-13T12:42:16.721Z,14.70
2019-05-13T12:43:16.996Z,14.63
2019-05-13T12:44:16.499Z,14.74
2019-05-13T12:45:16.803Z,14.93
2019-05-13T12:46:17.129Z,14.68
2019-05-13T12:47:16.407Z,14.85
2019-05-13T12:48:16.732Z,14.83
2019-05-13T12:49:17.049Z,14.70
2019-05-13T12:50:16.364Z,14.67
2019-05-13T12:51:16.380Z,14.73
2019-05-13T12:52:17.102Z,14.83
2019-05-13T12:53:16.380Z,14.63
2019-05-13T12:54:16.656Z,15.07
2019-05-13T12:55:16.932Z,15.07
2019-05-13T12:56:17.207Z,14.88
2019-05-13T12:57:16.569Z,14.71
2019-05-13T12:58:16.875Z,14.69
2019-05-13T12:59:17.145Z,14.53
2019-05-13T13:00:16.422Z,14.29
2019-05-13T13:01:16.461Z,14.23
2019-05-13T13:02:16.736Z,14.19
2019-05-13T13:03:17.010Z,14.08
2019-05-13T13:04:16.300Z,14.66
2019-05-13T13:05:20.427Z,14.69
2019-05-13T13:06:30.315Z,14.53
2019-05-13T13:07:16.297Z,14.60